PWSweather.com
Personal Weather Stations
Station Observations
KPAEXPOR2
Wellington Estates, Export, PA 15632

Wellington EstatesExport, PA 15632

Lat: 40.446, Lon: -79.592

Elevation: 1286

Station Type: PWS1000-TD

http://www.westmorelandweather.com

Latest ConditionsUpdated 2:15:00 PM EST Tuesday, Jan 24, 2017
Currently Today's Max Today's Min Today's Average
Temperature 38.4°F3.6°C 39.5°F4.2°C 33.0°F0.6°C 35.3°F1.8°C
Dew Point 29.4°F-1.4°C 32.6°F0.3°C 27.0°F-2.8°C 28.6°F-1.9°C
Winds 5.0 mph S8.0 kmh S 8.5 mph SE13.7 kmh SE - 2.2 mph 3.5 kmh
Wind Gusts 8.3 mph13.4 kmh 15.2 mph24.5 kmh - -
Humidity 70% 81% 67% 76%
Pressure 29.73 in1006.8 mb 29.74 in1007.1 mb 29.67 in1004.7 mb -
Precipitation - 0.40 in10.2 mm - -
Hour Temp Dew Point Humidity Winds Wind Gusts Pressure Precip Precip Rate Daily Precip Total
02:15 PM 38.4°F3.6°C 29.4°F-1.4°C 70% 5.0 mph S8.0 kmh S 8.3 mph13.4 kmh 29.73 in1006.8 mb 0.00 in0.0 mm 0.00 in0.0 mm 0.40 in10.2 mm
02:00 PM 38.6°F3.7°C 29.3°F-1.5°C 69% 3.5 mph S5.6 kmh S 5.4 mph8.7 kmh 29.73 in1006.8 mb 0.00 in0.0 mm 0.00 in0.0 mm 0.40 in10.2 mm
01:45 PM 38.7°F3.7°C 29.4°F-1.4°C 69% 4.7 mph E7.6 kmh E 9.2 mph14.8 kmh 29.73 in1006.8 mb 0.00 in0.0 mm 0.00 in0.0 mm 0.40 in10.2 mm
01:30 PM 39.1°F3.9°C 29.4°F-1.4°C 68% 4.2 mph E6.8 kmh E 6.0 mph9.7 kmh 29.73 in1006.8 mb 0.00 in0.0 mm 0.00 in0.0 mm 0.40 in10.2 mm
01:15 PM 39.3°F4.1°C 29.2°F-1.6°C 67% 5.2 mph ESE8.4 kmh ESE 7.6 mph12.2 kmh 29.72 in1006.4 mb 0.01 in0.3 mm 0.00 in0.0 mm 0.40 in10.2 mm
01:00 PM 39.5°F4.2°C 30.1°F-1.1°C 69% 3.9 mph SSE6.3 kmh SSE 5.4 mph8.7 kmh 29.73 in1006.8 mb 0.02 in0.5 mm 0.00 in0.0 mm 0.40 in10.2 mm
12:45 PM 39.3°F4.1°C 30.3°F-0.9°C 70% 3.9 mph E6.3 kmh E 6.0 mph9.7 kmh 29.73 in1006.8 mb 0.04 in1.0 mm 0.00 in0.0 mm 0.40 in10.2 mm
12:30 PM 38.7°F3.7°C 29.4°F-1.4°C 69% 8.5 mph SE13.7 kmh SE 15.2 mph24.5 kmh 29.73 in1006.8 mb 0.06 in1.5 mm 0.00 in0.0 mm 0.40 in10.2 mm
12:15 PM 38.7°F3.7°C 31.5°F-0.3°C 75% 4.5 mph SSE7.2 kmh SSE 6.0 mph9.7 kmh 29.73 in1006.8 mb 0.07 in1.8 mm 0.00 in0.0 mm 0.39 in9.9 mm
12:00 PM 38.7°F3.7°C 32.1°F0.1°C 77% 4.0 mph SSE6.4 kmh SSE 9.2 mph14.8 kmh 29.73 in1006.8 mb 0.09 in2.3 mm 0.00 in0.0 mm 0.38 in9.7 mm
11:45 AM 38.4°F3.6°C 32.4°F0.2°C 79% 4.6 mph SE7.4 kmh SE 6.9 mph11.1 kmh 29.74 in1007.1 mb 0.11 in2.8 mm 0.00 in0.0 mm 0.37 in9.4 mm
11:30 AM 38.2°F3.4°C 32.6°F0.3°C 80% 5.0 mph SE8.0 kmh SE 7.6 mph12.2 kmh 29.73 in1006.8 mb 0.11 in2.8 mm 0.00 in0.0 mm 0.34 in8.6 mm
11:15 AM 37.7°F3.2°C 32.4°F0.2°C 81% 4.7 mph SE7.6 kmh SE 7.6 mph12.2 kmh 29.73 in1006.8 mb 0.11 in2.8 mm 0.08 in2.0 mm 0.32 in8.1 mm
11:00 AM 37.5°F3.1°C 32.2°F0.1°C 81% 4.7 mph SSW7.6 kmh SSW 6.9 mph11.1 kmh 29.73 in1006.8 mb 0.09 in2.3 mm 0.00 in0.0 mm 0.28 in7.1 mm
10:45 AM 36.9°F2.7°C 31.7°F-0.2°C 81% 5.5 mph SSW8.9 kmh SSW 9.2 mph14.8 kmh 29.73 in1006.8 mb 0.09 in2.3 mm 0.04 in1.0 mm 0.26 in6.6 mm
10:30 AM 36.6°F2.6°C 31.3°F-0.4°C 81% 3.2 mph S5.1 kmh S 6.9 mph11.1 kmh 29.73 in1006.8 mb 0.08 in2.0 mm 0.00 in0.0 mm 0.24 in6.1 mm
10:15 AM 36.2°F2.3°C 30.9°F-0.6°C 81% 3.3 mph SSE5.3 kmh SSE 3.8 mph6.1 kmh 29.72 in1006.4 mb 0.08 in2.0 mm 0.04 in1.0 mm 0.21 in5.3 mm
10:00 AM 35.9°F2.2°C 30.6°F-0.8°C 81% 3.8 mph SSE6.1 kmh SSE 6.0 mph9.7 kmh 29.72 in1006.4 mb 0.07 in1.8 mm 0.01 in0.3 mm 0.19 in4.8 mm
09:45 AM 35.3°F1.8°C 29.8°F-1.2°C 80% 4.0 mph WSW6.4 kmh WSW 5.4 mph8.7 kmh 29.72 in1006.4 mb 0.06 in1.5 mm 0.00 in0.0 mm 0.17 in4.3 mm
09:30 AM 34.8°F1.6°C 29.2°F-1.6°C 80% 2.9 mph SSE4.7 kmh SSE 5.4 mph8.7 kmh 29.71 in1006.1 mb 0.06 in1.5 mm 0.08 in2.0 mm 0.15 in3.8 mm
09:15 AM 34.4°F1.3°C 28.9°F-1.7°C 80% 2.3 mph SSW3.7 kmh SSW 4.5 mph7.2 kmh 29.71 in1006.1 mb 0.04 in1.0 mm 0.00 in0.0 mm 0.13 in3.3 mm
09:00 AM 34.1°F1.2°C 28.5°F-1.9°C 80% 0.7 mph S1.1 kmh S 3.1 mph5.0 kmh 29.71 in1006.1 mb 0.04 in1.0 mm 0.03 in0.8 mm 0.12 in3.0 mm
08:45 AM 33.7°F0.9°C 28.2°F-2.1°C 80% 0.5 mph S0.8 kmh S 1.6 mph2.6 kmh 29.71 in1006.1 mb 0.02 in0.5 mm 0.04 in1.0 mm 0.11 in2.8 mm
08:30 AM 33.3°F0.7°C 27.5°F-2.5°C 79% 1.6 mph S2.6 kmh S 3.1 mph5.0 kmh 29.71 in1006.1 mb 0.01 in0.3 mm 0.00 in0.0 mm 0.09 in2.3 mm
08:15 AM 33.3°F0.7°C 27.5°F-2.5°C 79% 1.5 mph SSW2.4 kmh SSW 3.1 mph5.0 kmh 29.71 in1006.1 mb 0.01 in0.3 mm 0.04 in1.0 mm 0.09 in2.3 mm
08:00 AM 33.2°F0.7°C 27.4°F-2.6°C 79% 1.0 mph S1.6 kmh S 2.2 mph3.5 kmh 29.71 in1006.1 mb 0.00 in0.0 mm 0.00 in0.0 mm 0.08 in2.0 mm
07:45 AM 33.0°F0.6°C 27.2°F-2.7°C 79% 1.5 mph S2.4 kmh S 2.2 mph3.5 kmh 29.70 in1005.8 mb 0.01 in0.3 mm 0.00 in0.0 mm 0.08 in2.0 mm
07:30 AM 33.0°F0.6°C 27.2°F-2.7°C 79% 2.4 mph S3.9 kmh S 3.1 mph5.0 kmh 29.70 in1005.8 mb 0.01 in0.3 mm 0.00 in0.0 mm 0.08 in2.0 mm
07:15 AM 33.2°F0.7°C 27.4°F-2.6°C 79% 2.8 mph SSW4.5 kmh SSW 3.8 mph6.1 kmh 29.70 in1005.8 mb 0.02 in0.5 mm 0.00 in0.0 mm 0.08 in2.0 mm
07:00 AM 33.3°F0.7°C 27.2°F-2.7°C 78% 3.2 mph S5.1 kmh S 4.5 mph7.2 kmh 29.70 in1005.8 mb 0.02 in0.5 mm 0.01 in0.3 mm 0.08 in2.0 mm
06:45 AM 33.5°F0.8°C 27.4°F-2.6°C 78% 2.6 mph SSW4.2 kmh SSW 4.5 mph7.2 kmh 29.70 in1005.8 mb 0.01 in0.3 mm 0.00 in0.0 mm 0.07 in1.8 mm
06:30 AM 33.7°F0.9°C 27.3°F-2.6°C 77% 1.9 mph S3.1 kmh S 2.2 mph3.5 kmh 29.69 in1005.4 mb 0.01 in0.3 mm 0.00 in0.0 mm 0.07 in1.8 mm
06:15 AM 34.1°F1.2°C 27.6°F-2.4°C 77% 0.7 mph SSW1.1 kmh SSW 1.6 mph2.6 kmh 29.69 in1005.4 mb 0.01 in0.3 mm 0.00 in0.0 mm 0.06 in1.5 mm
06:00 AM 34.2°F1.2°C 27.8°F-2.3°C 77% 0.4 mph N0.6 kmh N 0.7 mph1.1 kmh 29.69 in1005.4 mb 0.01 in0.3 mm 0.00 in0.0 mm 0.06 in1.5 mm
05:45 AM 34.1°F1.2°C 27.6°F-2.4°C 77% Calm Calm -- 29.68 in1005.1 mb 0.01 in0.3 mm 0.00 in0.0 mm 0.06 in1.5 mm
05:30 AM 34.1°F1.2°C 27.6°F-2.4°C 77% Calm Calm -- 29.68 in1005.1 mb 0.01 in0.3 mm 0.00 in0.0 mm 0.05 in1.3 mm
05:15 AM 34.2°F1.2°C 27.8°F-2.3°C 77% Calm Calm -- 29.69 in1005.4 mb 0.01 in0.3 mm 0.00 in0.0 mm 0.05 in1.3 mm
05:00 AM 34.2°F1.2°C 27.8°F-2.3°C 77% Calm Calm -- 29.69 in1005.4 mb 0.01 in0.3 mm 0.00 in0.0 mm 0.05 in1.3 mm
04:45 AM 34.2°F1.2°C 27.5°F-2.5°C 76% 0.9 mph S1.4 kmh S 2.2 mph3.5 kmh 29.68 in1005.1 mb 0.01 in0.3 mm 0.00 in0.0 mm 0.05 in1.3 mm
04:30 AM 34.4°F1.3°C 27.6°F-2.4°C 76% 0.4 mph NNW0.6 kmh NNW 0.7 mph1.1 kmh 29.68 in1005.1 mb 0.01 in0.3 mm 0.00 in0.0 mm 0.04 in1.0 mm
04:15 AM 34.4°F1.3°C 27.6°F-2.4°C 76% 0.6 mph N1.0 kmh N 2.2 mph3.5 kmh 29.68 in1005.1 mb 0.01 in0.3 mm 0.00 in0.0 mm 0.04 in1.0 mm
04:00 AM 34.2°F1.2°C 27.5°F-2.5°C 76% 0.4 mph NNW0.6 kmh NNW 1.6 mph2.6 kmh 29.68 in1005.1 mb 0.02 in0.5 mm 0.00 in0.0 mm 0.04 in1.0 mm
03:45 AM 34.2°F1.2°C 27.5°F-2.5°C 76% 0.2 mph E0.3 kmh E 0.7 mph1.1 kmh 29.68 in1005.1 mb 0.02 in0.5 mm 0.04 in1.0 mm 0.04 in1.0 mm
03:30 AM 34.2°F1.2°C 27.5°F-2.5°C 76% 1.3 mph E2.1 kmh E 3.1 mph5.0 kmh 29.68 in1005.1 mb 0.01 in0.3 mm 0.00 in0.0 mm 0.02 in0.5 mm
03:15 AM 34.2°F1.2°C 27.5°F-2.5°C 76% 1.4 mph NNE2.3 kmh NNE 3.1 mph5.0 kmh 29.67 in1004.7 mb 0.01 in0.3 mm 0.00 in0.0 mm 0.02 in0.5 mm
03:00 AM 34.2°F1.2°C 27.5°F-2.5°C 76% 1.5 mph NNE2.4 kmh NNE 3.1 mph5.0 kmh 29.68 in1005.1 mb 0.01 in0.3 mm 0.00 in0.0 mm 0.01 in0.3 mm
02:45 AM 34.1°F1.2°C 27.3°F-2.6°C 76% 0.6 mph NNE1.0 kmh NNE 1.6 mph2.6 kmh 29.68 in1005.1 mb 0.01 in0.3 mm 0.00 in0.0 mm 0.01 in0.3 mm
02:30 AM 33.9°F1.1°C 27.1°F-2.7°C 76% 0.4 mph NNE0.6 kmh NNE 1.6 mph2.6 kmh 29.68 in1005.1 mb 0.01 in0.3 mm 0.00 in0.0 mm 0.01 in0.3 mm
02:15 AM 33.9°F1.1°C 27.1°F-2.7°C 76% Calm Calm -- 29.68 in1005.1 mb 0.01 in0.3 mm 0.04 in1.0 mm 0.01 in0.3 mm
02:00 AM 34.1°F1.2°C 27.3°F-2.6°C 76% 0.6 mph N1.0 kmh N 1.6 mph2.6 kmh 29.68 in1005.1 mb 0.00 in0.0 mm 0.00 in0.0 mm 0.00 in0.0 mm
01:45 AM 34.1°F1.2°C 27.3°F-2.6°C 76% 0.5 mph N0.8 kmh N 1.6 mph2.6 kmh 29.68 in1005.1 mb 0.00 in0.0 mm 0.00 in0.0 mm 0.00 in0.0 mm
01:30 AM 34.2°F1.2°C 27.5°F-2.5°C 76% 1.7 mph N2.7 kmh N 3.1 mph5.0 kmh 29.68 in1005.1 mb 0.00 in0.0 mm 0.00 in0.0 mm 0.00 in0.0 mm
01:15 AM 34.1°F1.2°C 27.3°F-2.6°C 76% 1.0 mph NNE1.6 kmh NNE 3.1 mph5.0 kmh 29.68 in1005.1 mb 0.00 in0.0 mm 0.00 in0.0 mm 0.00 in0.0 mm
01:00 AM 34.1°F1.2°C 27.3°F-2.6°C 76% 0.6 mph NNW1.0 kmh NNW 2.2 mph3.5 kmh 29.68 in1005.1 mb 0.00 in0.0 mm 0.00 in0.0 mm 0.00 in0.0 mm
12:45 AM 34.1°F1.2°C 27.3°F-2.6°C 76% 0.8 mph NW1.3 kmh NW 1.6 mph2.6 kmh 29.67 in1004.7 mb 0.00 in0.0 mm 0.00 in0.0 mm 0.00 in0.0 mm
12:30 AM 34.2°F1.2°C 27.5°F-2.5°C 76% 0.2 mph N0.3 kmh N 1.6 mph2.6 kmh 29.69 in1005.4 mb 0.00 in0.0 mm 0.00 in0.0 mm 0.00 in0.0 mm
12:15 AM 34.1°F1.2°C 27.0°F-2.8°C 75% 1.1 mph N1.8 kmh N 2.2 mph3.5 kmh 29.68 in1005.1 mb 0.00 in0.0 mm 0.00 in0.0 mm 0.00 in0.0 mm
12:00 AM 34.2°F1.2°C 27.1°F-2.7°C 75% 0.1 mph N0.2 kmh N 0.7 mph1.1 kmh 29.68 in1005.1 mb 0.00 in0.0 mm 0.00 in0.0 mm 0.00 in0.0 mm